createdAt,value
2023-03-05T00:00:36.154Z,74.45
2023-03-05T00:01:37.824Z,74.62
2023-03-05T00:02:39.481Z,74.88
2023-03-05T00:03:41.286Z,74.94
2023-03-05T00:04:42.923Z,74.85
2023-03-05T00:05:44.599Z,74.83
2023-03-05T00:06:46.242Z,75.23
2023-03-05T00:07:48.995Z,75.31
2023-03-05T00:08:51.884Z,75.24
2023-03-05T00:09:53.498Z,75.27
2023-03-05T00:10:58.537Z,75.11
2023-03-05T00:12:00.215Z,75.38
2023-03-05T00:13:01.812Z,75.32
2023-03-05T00:14:04.199Z,75.12
2023-03-05T00:15:06.463Z,75.37
2023-03-05T00:16:10.456Z,75.18
2023-03-05T00:17:12.131Z,75.73
2023-03-05T00:18:13.708Z,75.75
2023-03-05T00:19:15.355Z,75.84
2023-03-05T00:20:17.144Z,75.95
2023-03-05T00:21:25.902Z,75.89
2023-03-05T00:22:27.555Z,75.83
2023-03-05T00:23:29.208Z,76.03
2023-03-05T00:24:30.901Z,76.23
2023-03-05T00:25:34.764Z,76.34
2023-03-05T00:26:37.150Z,76.47
2023-03-05T00:27:38.809Z,76.24
2023-03-05T00:28:40.492Z,76.14
2023-03-05T00:29:42.560Z,76.15
2023-03-05T00:30:44.156Z,76.08
2023-03-05T00:31:45.824Z,76.07
2023-03-05T00:32:47.442Z,76.12
2023-03-05T00:33:55.738Z,75.79
2023-03-05T00:34:57.408Z,75.69
2023-03-05T00:36:01.778Z,75.30
2023-03-05T00:37:03.491Z,75.34
2023-03-05T00:38:05.140Z,75.34
2023-03-05T00:39:06.929Z,75.42
2023-03-05T00:40:09.811Z,75.63
2023-03-05T00:41:11.464Z,75.84
2023-03-05T00:42:13.059Z,75.72
2023-03-05T00:43:14.683Z,75.70
2023-03-05T00:44:16.404Z,75.86
2023-03-05T00:45:18.084Z,76.08
2023-03-05T00:46:19.841Z,76.12
2023-03-05T00:47:21.483Z,76.27
2023-03-05T00:48:23.112Z,76.60
2023-03-05T00:49:24.721Z,76.68
2023-03-05T00:50:26.457Z,76.28
2023-03-05T00:51:28.117Z,76.16
2023-03-05T00:52:29.734Z,76.19
2023-03-05T00:53:31.472Z,76.15
2023-03-05T00:54:33.087Z,76.19
2023-03-05T00:55:36.163Z,76.16
2023-03-05T00:56:37.901Z,76.15
2023-03-05T00:57:39.662Z,75.78
2023-03-05T00:58:41.462Z,75.75
2023-03-05T00:59:43.065Z,76.47
2023-03-05T01:00:44.726Z,76.28
2023-03-05T01:01:46.362Z,75.97
2023-03-05T01:02:48.069Z,75.68
2023-03-05T01:03:49.664Z,75.57
2023-03-05T01:04:51.346Z,76.07
2023-03-05T01:05:53.153Z,76.08
2023-03-05T01:06:54.856Z,76.34
2023-03-05T01:07:57.396Z,76.26
2023-03-05T01:08:59.657Z,76.16
2023-03-05T01:10:01.271Z,76.24
2023-03-05T01:11:03.586Z,76.75
2023-03-05T01:12:05.369Z,76.92
2023-03-05T01:13:06.976Z,76.96
2023-03-05T01:14:08.709Z,77.03
2023-03-05T01:15:10.351Z,77.01
2023-03-05T01:16:12.074Z,76.82
2023-03-05T01:17:13.664Z,76.90
2023-03-05T01:18:15.280Z,77.04
2023-03-05T01:19:17.037Z,77.14
2023-03-05T01:20:19.450Z,77.12
2023-03-05T01:21:22.092Z,77.07
2023-03-05T01:22:23.725Z,76.86
2023-03-05T01:23:25.331Z,76.56
2023-03-05T01:24:27.078Z,76.84
2023-03-05T01:25:28.723Z,77.27
2023-03-05T01:26:30.390Z,77.14
2023-03-05T01:27:32.120Z,76.94
2023-03-05T01:28:33.771Z,76.91
2023-03-05T01:29:36.554Z,76.75
2023-03-05T01:30:38.406Z,76.64
2023-03-05T01:31:40.111Z,76.33
2023-03-05T01:32:42.011Z,76.21
2023-03-05T01:33:43.714Z,75.98
2023-03-05T01:34:45.311Z,75.83
2023-03-05T01:35:50.098Z,76.01
2023-03-05T01:36:51.856Z,76.04
2023-03-05T01:37:53.704Z,75.95
2023-03-05T01:38:55.328Z,75.76
2023-03-05T01:39:56.935Z,75.91
2023-03-05T01:40:58.527Z,75.94
2023-03-05T01:42:00.169Z,75.92
2023-03-05T01:43:24.240Z,75.72
2023-03-05T01:44:28.082Z,75.73
2023-03-05T01:45:31.866Z,75.50
2023-03-05T01:46:38.315Z,75.04
2023-03-05T01:47:39.990Z,74.84
2023-03-05T01:48:41.710Z,74.60
2023-03-05T01:49:43.384Z,74.71
2023-03-05T01:50:44.977Z,74.60
2023-03-05T01:52:00.704Z,74.63
2023-03-05T01:53:03.844Z,74.65
2023-03-05T01:54:06.056Z,74.62
2023-03-05T01:55:13.958Z,74.43
2023-03-05T01:56:15.821Z,74.47
2023-03-05T01:57:24.047Z,74.33
2023-03-05T01:58:25.816Z,74.52
2023-03-05T01:59:27.433Z,74.37
2023-03-05T02:00:34.477Z,74.20
2023-03-05T02:01:41.234Z,74.27
2023-03-05T02:02:43.706Z,74.43
2023-03-05T02:03:45.585Z,74.33
2023-03-05T02:05:07.883Z,73.95
2023-03-05T02:06:09.897Z,73.63
2023-03-05T02:07:11.604Z,74.27
2023-03-05T02:08:15.277Z,74.77
2023-03-05T02:09:16.928Z,75.05
2023-03-05T02:10:24.679Z,75.27
2023-03-05T02:11:27.442Z,75.15
2023-03-05T02:12:29.053Z,75.17
2023-03-05T02:13:32.726Z,75.29
2023-03-05T02:14:34.337Z,75.18
2023-03-05T02:15:35.949Z,75.40
2023-03-05T02:16:38.363Z,75.74
2023-03-05T02:17:40.093Z,75.83
2023-03-05T02:18:41.690Z,75.69
2023-03-05T02:20:04.814Z,75.68
2023-03-05T02:21:07.549Z,75.74
2023-03-05T02:22:14.966Z,75.63
2023-03-05T02:23:17.089Z,75.54
2023-03-05T02:24:33.543Z,75.57
2023-03-05T02:25:35.131Z,75.55
2023-03-05T02:26:36.724Z,75.56
2023-03-05T02:27:38.328Z,75.73
2023-03-05T02:28:42.710Z,75.72
2023-03-05T02:29:46.011Z,75.53
2023-03-05T02:30:47.761Z,75.68
2023-03-05T02:31:49.401Z,75.97
2023-03-05T02:32:51.048Z,76.39
2023-03-05T02:33:53.988Z,76.37
2023-03-05T02:34:55.667Z,76.34
2023-03-05T02:35:57.344Z,76.24
2023-03-05T02:36:59.032Z,76.27
2023-03-05T02:38:00.641Z,76.19
2023-03-05T02:39:02.358Z,76.51
2023-03-05T02:40:04.247Z,76.39
2023-03-05T02:41:05.937Z,76.43
2023-03-05T02:42:07.749Z,76.35
2023-03-05T02:43:09.664Z,76.32
2023-03-05T02:44:11.310Z,76.29
2023-03-05T02:45:13.485Z,76.28
2023-03-05T02:46:15.226Z,76.04
2023-03-05T02:47:16.884Z,76.33
2023-03-05T02:48:18.486Z,75.86
2023-03-05T02:49:20.109Z,75.42
2023-03-05T02:50:21.766Z,75.77
2023-03-05T02:51:23.408Z,75.88
2023-03-05T02:52:25.591Z,75.68
2023-03-05T02:53:27.230Z,75.85
2023-03-05T02:54:28.895Z,75.59
2023-03-05T02:55:30.549Z,75.70
2023-03-05T02:56:32.217Z,75.57
2023-03-05T02:57:34.096Z,75.47
2023-03-05T02:58:35.747Z,75.48
2023-03-05T02:59:37.376Z,75.47
2023-03-05T03:00:38.979Z,75.72
2023-03-05T03:01:40.705Z,75.52
2023-03-05T03:02:42.334Z,75.36
2023-03-05T03:03:43.940Z,75.33
2023-03-05T03:04:45.590Z,75.48
2023-03-05T03:05:47.233Z,75.29
2023-03-05T03:06:48.834Z,75.39
2023-03-05T03:07:50.442Z,75.48
2023-03-05T03:08:52.095Z,75.75
2023-03-05T03:09:53.689Z,76.08
2023-03-05T03:10:56.567Z,76.17
2023-03-05T03:11:58.188Z,76.32
2023-03-05T03:12:59.869Z,76.23
2023-03-05T03:14:01.481Z,76.17
2023-03-05T03:15:03.153Z,76.42
2023-03-05T03:16:06.812Z,76.50
2023-03-05T03:17:09.651Z,76.17
2023-03-05T03:18:11.362Z,76.17
2023-03-05T03:19:13.004Z,76.33
2023-03-05T03:20:16.627Z,76.64
2023-03-05T03:21:20.605Z,76.90
2023-03-05T03:22:22.259Z,77.34
2023-03-05T03:23:24.028Z,77.69
2023-03-05T03:24:25.654Z,77.91
2023-03-05T03:25:27.370Z,77.77
2023-03-05T03:26:29.010Z,77.58
2023-03-05T03:27:30.609Z,77.58
2023-03-05T03:28:32.292Z,77.55
2023-03-05T03:29:33.871Z,77.57
2023-03-05T03:30:35.548Z,77.51
2023-03-05T03:31:40.139Z,77.89
2023-03-05T03:32:41.766Z,77.99
2023-03-05T03:33:43.528Z,78.14
2023-03-05T03:34:45.191Z,78.25
2023-03-05T03:35:46.816Z,78.17
2023-03-05T03:36:48.975Z,78.17
2023-03-05T03:37:50.562Z,78.17
2023-03-05T03:38:52.192Z,78.50
2023-03-05T03:39:53.866Z,78.65
2023-03-05T03:40:55.480Z,78.91
2023-03-05T03:41:57.214Z,78.87
2023-03-05T03:42:58.822Z,78.82
2023-03-05T03:44:01.017Z,78.66
2023-03-05T03:45:02.766Z,78.64
2023-03-05T03:46:07.529Z,78.52
2023-03-05T03:47:09.169Z,78.55
2023-03-05T03:48:11.036Z,78.38
2023-03-05T03:49:20.556Z,78.45
2023-03-05T03:50:25.063Z,78.51
2023-03-05T03:51:26.699Z,78.73
2023-03-05T03:52:28.370Z,78.42
2023-03-05T03:53:30.081Z,78.42
2023-03-05T03:54:31.701Z,78.28
2023-03-05T03:55:33.758Z,78.08
2023-03-05T03:56:35.358Z,78.09
2023-03-05T03:57:37.203Z,78.24
2023-03-05T03:58:38.833Z,78.04
2023-03-05T03:59:40.469Z,77.82
2023-03-05T04:00:42.177Z,78.14
2023-03-05T04:01:43.848Z,78.06
2023-03-05T04:02:45.486Z,78.01
2023-03-05T04:03:47.125Z,78.08
2023-03-05T04:04:48.877Z,77.87
2023-03-05T04:05:50.532Z,77.76
2023-03-05T04:06:52.191Z,78.13
2023-03-05T04:07:53.835Z,78.06
2023-03-05T04:08:55.542Z,78.20
2023-03-05T04:09:57.133Z,78.33
2023-03-05T04:11:00.975Z,78.15
2023-03-05T04:12:02.582Z,77.74
2023-03-05T04:13:04.188Z,77.63
2023-03-05T04:14:05.796Z,77.73
2023-03-05T04:15:08.064Z,77.37
2023-03-05T04:16:09.794Z,77.75
2023-03-05T04:17:11.779Z,77.77
2023-03-05T04:18:13.382Z,77.42
2023-03-05T04:19:15.040Z,77.44
2023-03-05T04:20:16.932Z,77.61
2023-03-05T04:21:18.599Z,77.41
2023-03-05T04:22:20.220Z,77.29
2023-03-05T04:23:21.842Z,77.34
2023-03-05T04:24:23.430Z,77.19
2023-03-05T04:25:25.097Z,76.95
2023-03-05T04:26:26.808Z,76.98
2023-03-05T04:27:28.402Z,76.95
2023-03-05T04:28:30.142Z,77.02
2023-03-05T04:29:31.971Z,76.95
2023-03-05T04:30:33.617Z,76.74
2023-03-05T04:31:35.213Z,76.51
2023-03-05T04:32:36.916Z,76.53
2023-03-05T04:33:38.592Z,76.52
2023-03-05T04:34:40.343Z,76.24
2023-03-05T04:35:42.054Z,76.30
2023-03-05T04:36:43.736Z,76.74
2023-03-05T04:37:45.339Z,76.92
2023-03-05T04:38:46.966Z,76.89
2023-03-05T04:39:48.548Z,76.92
2023-03-05T04:40:50.146Z,76.82
2023-03-05T04:41:51.734Z,76.53
2023-03-05T04:42:53.338Z,76.44
2023-03-05T04:43:55.035Z,76.90
2023-03-05T04:44:56.707Z,77.55
2023-03-05T04:45:58.398Z,77.65
2023-03-05T04:47:00.155Z,77.98
2023-03-05T04:48:01.783Z,77.81
2023-03-05T04:49:03.480Z,77.71
2023-03-05T04:50:05.617Z,77.77
2023-03-05T04:51:07.368Z,77.76
2023-03-05T04:52:10.136Z,77.76
2023-03-05T04:53:11.742Z,77.57
2023-03-05T04:54:13.424Z,77.22
2023-03-05T04:55:15.401Z,77.05
2023-03-05T04:56:17.096Z,77.00
2023-03-05T04:57:18.940Z,76.71
2023-03-05T04:58:20.561Z,76.62
2023-03-05T04:59:22.161Z,76.60
2023-03-05T05:00:23.962Z,76.37
2023-03-05T05:01:25.871Z,76.05
2023-03-05T05:02:27.631Z,75.90
2023-03-05T05:03:29.499Z,75.98
2023-03-05T05:04:31.904Z,75.74
2023-03-05T05:05:33.596Z,75.59
2023-03-05T05:06:35.369Z,75.83
2023-03-05T05:07:36.963Z,75.33
2023-03-05T05:08:38.563Z,75.29
2023-03-05T05:09:41.573Z,75.16
2023-03-05T05:10:43.202Z,75.55
2023-03-05T05:11:44.869Z,75.74
2023-03-05T05:12:46.499Z,75.50
2023-03-05T05:13:48.113Z,75.08
2023-03-05T05:14:49.722Z,75.40
2023-03-05T05:15:51.380Z,75.22
2023-03-05T05:16:53.046Z,75.19
2023-03-05T05:17:54.676Z,75.07
2023-03-05T05:18:56.324Z,75.37
2023-03-05T05:19:58.089Z,75.36
2023-03-05T05:20:59.693Z,75.80
2023-03-05T05:22:01.496Z,76.11
2023-03-05T05:23:03.092Z,76.35
2023-03-05T05:24:05.099Z,76.35
2023-03-05T05:25:06.911Z,76.43
2023-03-05T05:26:08.733Z,76.40
2023-03-05T05:27:10.375Z,76.24
2023-03-05T05:28:12.246Z,75.88
2023-03-05T05:29:13.895Z,75.90
2023-03-05T05:30:15.796Z,75.77
2023-03-05T05:31:17.564Z,75.50
2023-03-05T05:32:22.818Z,75.36
2023-03-05T05:33:24.670Z,75.08
2023-03-05T05:34:26.407Z,74.63
2023-03-05T05:35:28.060Z,74.27
2023-03-05T05:36:29.767Z,74.15
2023-03-05T05:37:31.514Z,74.09
2023-03-05T05:38:33.361Z,73.47
2023-03-05T05:39:35.545Z,73.38
2023-03-05T05:40:37.136Z,73.46
2023-03-05T05:41:38.777Z,73.57
2023-03-05T05:42:40.446Z,73.86
2023-03-05T05:43:42.048Z,74.18
2023-03-05T05:44:43.808Z,73.88
2023-03-05T05:45:45.626Z,73.71
2023-03-05T05:46:47.402Z,74.15
2023-03-05T05:47:49.142Z,73.99
2023-03-05T05:48:50.857Z,73.54
2023-03-05T05:49:52.471Z,73.25
2023-03-05T05:50:54.135Z,72.76
2023-03-05T05:51:55.732Z,72.39
2023-03-05T05:52:57.318Z,72.24
2023-03-05T05:53:58.963Z,71.99
2023-03-05T05:55:01.174Z,72.05
2023-03-05T05:56:05.207Z,71.47
2023-03-05T05:57:07.203Z,71.50
2023-03-05T05:58:08.815Z,71.26
2023-03-05T05:59:10.587Z,71.32
2023-03-05T06:00:13.071Z,71.23
2023-03-05T06:01:26.467Z,71.13
2023-03-05T06:02:28.163Z,70.94
2023-03-05T06:03:29.881Z,70.98
2023-03-05T06:04:31.906Z,70.72
2023-03-05T06:05:34.330Z,70.74
2023-03-05T06:06:35.987Z,70.70
2023-03-05T06:07:37.742Z,70.27
2023-03-05T06:08:39.660Z,70.52
2023-03-05T06:09:41.334Z,70.29
2023-03-05T06:10:42.912Z,70.18
2023-03-05T06:11:44.499Z,70.08
2023-03-05T06:12:46.131Z,70.26
2023-03-05T06:13:48.228Z,70.12
2023-03-05T06:14:50.691Z,70.16
2023-03-05T06:15:57.472Z,69.77
2023-03-05T06:16:59.083Z,69.63
2023-03-05T06:18:00.779Z,69.64
2023-03-05T06:19:04.638Z,69.65
2023-03-05T06:20:07.034Z,69.70
2023-03-05T06:21:12.082Z,69.76
2023-03-05T06:22:13.700Z,69.75
2023-03-05T06:23:15.359Z,69.62
2023-03-05T06:24:19.280Z,69.39
2023-03-05T06:25:20.901Z,69.68
2023-03-05T06:26:22.939Z,69.37
2023-03-05T06:27:24.554Z,69.62
2023-03-05T06:28:26.382Z,69.60
2023-03-05T06:29:27.956Z,69.82
2023-03-05T06:30:29.622Z,69.54
2023-03-05T06:31:31.320Z,69.41
2023-03-05T06:32:33.042Z,69.47
2023-03-05T06:33:34.969Z,69.46
2023-03-05T06:34:36.626Z,69.53
2023-03-05T06:35:40.120Z,69.64
2023-03-05T06:36:43.648Z,69.30
2023-03-05T06:37:45.301Z,69.12
2023-03-05T06:38:48.449Z,69.22
2023-03-05T06:39:50.583Z,69.32
2023-03-05T06:40:52.206Z,69.19
2023-03-05T06:41:53.811Z,69.08
2023-03-05T06:42:55.478Z,68.96
2023-03-05T06:43:57.411Z,69.07
2023-03-05T06:44:59.087Z,68.77
2023-03-05T06:46:04.948Z,69.21
2023-03-05T06:47:07.711Z,69.12
2023-03-05T06:48:09.335Z,69.36
2023-03-05T06:49:11.776Z,69.10
2023-03-05T06:50:13.515Z,68.97
2023-03-05T06:51:23.156Z,68.74
2023-03-05T06:52:24.754Z,68.90
2023-03-05T06:53:26.452Z,69.04
2023-03-05T06:54:28.136Z,68.93
2023-03-05T06:55:29.906Z,68.79
2023-03-05T06:56:31.772Z,68.90
2023-03-05T06:57:33.618Z,69.17
2023-03-05T06:58:35.271Z,68.98
2023-03-05T06:59:37.103Z,68.92
2023-03-05T07:00:38.728Z,68.83
2023-03-05T07:01:40.414Z,68.89
2023-03-05T07:02:42.186Z,69.09
2023-03-05T07:03:43.987Z,69.23
2023-03-05T07:04:46.002Z,69.22
2023-03-05T07:05:47.684Z,69.39
2023-03-05T07:06:49.347Z,69.28
2023-03-05T07:07:50.942Z,69.45
2023-03-05T07:08:54.995Z,69.43
2023-03-05T07:09:56.597Z,69.37
2023-03-05T07:10:58.431Z,69.46
2023-03-05T07:12:00.034Z,69.58
2023-03-05T07:13:01.650Z,69.84
2023-03-05T07:14:03.446Z,69.83
2023-03-05T07:15:05.534Z,69.84
2023-03-05T07:16:08.299Z,70.00
2023-03-05T07:17:09.945Z,70.21
2023-03-05T07:18:11.549Z,70.19
2023-03-05T07:19:13.200Z,70.17
2023-03-05T07:20:14.858Z,70.25
2023-03-05T07:21:18.844Z,70.20
2023-03-05T07:22:20.439Z,70.12
2023-03-05T07:23:22.029Z,70.13
2023-03-05T07:24:29.019Z,70.27
2023-03-05T07:25:30.622Z,70.14
2023-03-05T07:26:33.618Z,70.05
2023-03-05T07:27:36.841Z,70.10
2023-03-05T07:28:38.435Z,70.53
2023-03-05T07:29:40.079Z,70.39
2023-03-05T07:30:41.834Z,70.45
2023-03-05T07:31:43.541Z,70.52
2023-03-05T07:32:45.158Z,70.29
2023-03-05T07:33:47.607Z,70.24
2023-03-05T07:34:49.295Z,70.11
2023-03-05T07:35:50.955Z,70.23
2023-03-05T07:36:52.748Z,70.16
2023-03-05T07:37:55.892Z,69.99
2023-03-05T07:38:57.592Z,70.08
2023-03-05T07:39:59.215Z,70.09
2023-03-05T07:41:08.099Z,69.89
2023-03-05T07:42:09.717Z,69.75
2023-03-05T07:43:11.384Z,69.61
2023-03-05T07:44:13.086Z,69.35
2023-03-05T07:45:14.684Z,69.70
2023-03-05T07:46:17.408Z,69.72
2023-03-05T07:47:19.163Z,69.79
2023-03-05T07:48:21.079Z,69.84
2023-03-05T07:49:23.837Z,69.52
2023-03-05T07:50:25.436Z,69.63
2023-03-05T07:51:27.328Z,69.66
2023-03-05T07:52:28.943Z,69.57
2023-03-05T07:53:30.585Z,69.82
2023-03-05T07:54:32.180Z,69.80
2023-03-05T07:55:33.768Z,69.90
2023-03-05T07:56:35.770Z,69.62
2023-03-05T07:57:39.097Z,69.59
2023-03-05T07:58:40.757Z,69.69
2023-03-05T07:59:43.296Z,69.75
2023-03-05T08:00:44.906Z,69.75
2023-03-05T08:01:46.601Z,69.63
2023-03-05T08:02:48.382Z,69.59
2023-03-05T08:03:50.159Z,69.49
2023-03-05T08:04:51.779Z,69.53
2023-03-05T08:05:53.406Z,69.43
2023-03-05T08:06:55.082Z,69.63
2023-03-05T08:07:56.670Z,69.38
2023-03-05T08:08:58.424Z,69.37
2023-03-05T08:10:00.044Z,69.32
2023-03-05T08:11:09.190Z,69.24
2023-03-05T08:12:10.850Z,69.34
2023-03-05T08:13:12.475Z,69.16
2023-03-05T08:14:14.082Z,69.29
2023-03-05T08:15:15.917Z,69.19
2023-03-05T08:16:19.441Z,69.10
2023-03-05T08:17:21.161Z,69.11
2023-03-05T08:18:22.750Z,69.17
2023-03-05T08:19:24.330Z,69.17
2023-03-05T08:20:26.063Z,69.13
2023-03-05T08:21:33.864Z,68.68
2023-03-05T08:22:35.582Z,68.58
2023-03-05T08:23:37.223Z,68.80
2023-03-05T08:24:38.908Z,69.02
2023-03-05T08:25:40.541Z,69.25
2023-03-05T08:26:42.392Z,69.22
2023-03-05T08:27:45.590Z,69.47
2023-03-05T08:28:47.395Z,69.72
2023-03-05T08:29:49.001Z,69.62
2023-03-05T08:30:50.762Z,69.50
2023-03-05T08:31:53.740Z,69.53
2023-03-05T08:32:55.487Z,69.36
2023-03-05T08:33:57.985Z,69.81
2023-03-05T08:34:59.643Z,69.65
2023-03-05T08:36:01.251Z,69.44
2023-03-05T08:37:02.860Z,69.70
2023-03-05T08:38:05.022Z,69.94
2023-03-05T08:39:10.082Z,70.33
2023-03-05T08:40:12.233Z,70.60
2023-03-05T08:41:14.135Z,70.70
2023-03-05T08:42:15.789Z,70.91
2023-03-05T08:43:17.729Z,70.90
2023-03-05T08:44:19.410Z,71.02
2023-03-05T08:45:21.019Z,71.08
2023-03-05T08:46:22.677Z,71.34
2023-03-05T08:47:26.639Z,71.23
2023-03-05T08:48:28.393Z,71.16
2023-03-05T08:49:30.090Z,71.02
2023-03-05T08:50:31.699Z,71.01
2023-03-05T08:51:33.854Z,70.89
2023-03-05T08:52:35.474Z,70.95
2023-03-05T08:53:37.096Z,70.89
2023-03-05T08:54:38.900Z,70.95
2023-03-05T08:55:41.396Z,70.78
2023-03-05T08:56:44.294Z,70.51
2023-03-05T08:57:46.043Z,70.80
2023-03-05T08:58:48.395Z,70.38
2023-03-05T08:59:51.685Z,70.41
2023-03-05T09:00:53.961Z,69.98
2023-03-05T09:01:55.631Z,69.89
2023-03-05T09:02:57.351Z,69.66
2023-03-05T09:03:59.500Z,69.99
2023-03-05T09:05:01.149Z,69.84
2023-03-05T09:06:03.996Z,70.16
2023-03-05T09:07:05.796Z,70.46
2023-03-05T09:08:07.447Z,70.21
2023-03-05T09:09:09.587Z,70.25
2023-03-05T09:10:13.722Z,69.88
2023-03-05T09:11:15.510Z,70.12
2023-03-05T09:12:17.112Z,69.82
2023-03-05T09:13:18.714Z,69.05
2023-03-05T09:14:20.986Z,68.89
2023-03-05T09:15:22.671Z,68.57
2023-03-05T09:16:24.368Z,68.73
2023-03-05T09:17:26.024Z,68.76
2023-03-05T09:18:28.883Z,68.83
2023-03-05T09:19:30.523Z,68.23
2023-03-05T09:20:33.384Z,68.25
2023-03-05T09:21:34.962Z,68.10
2023-03-05T09:22:36.581Z,67.89
2023-03-05T09:23:38.287Z,67.83
2023-03-05T09:24:40.014Z,67.34
2023-03-05T09:25:41.755Z,67.30
2023-03-05T09:26:44.293Z,67.16
2023-03-05T09:27:46.052Z,66.87
2023-03-05T09:28:47.946Z,66.41
2023-03-05T09:29:49.933Z,66.30
2023-03-05T09:30:51.621Z,66.25
2023-03-05T09:31:53.430Z,66.48
2023-03-05T09:32:55.041Z,66.57
2023-03-05T09:33:56.627Z,66.48
2023-03-05T09:34:58.420Z,66.10
2023-03-05T09:36:00.783Z,66.17
2023-03-05T09:37:03.249Z,65.89
2023-03-05T09:38:04.905Z,65.10
2023-03-05T09:39:07.100Z,65.39
2023-03-05T09:40:13.996Z,65.58
2023-03-05T09:41:53.094Z,65.03
2023-03-05T09:42:59.848Z,64.88
2023-03-05T09:44:04.331Z,64.79
2023-03-05T09:45:29.857Z,65.60
2023-03-05T09:46:33.270Z,65.41
2023-03-05T09:48:20.805Z,65.90
2023-03-05T09:49:46.935Z,65.27
2023-03-05T09:51:00.233Z,65.21
2023-03-05T09:52:11.384Z,65.18
2023-03-05T09:53:18.162Z,65.14
2023-03-05T09:54:21.874Z,65.13
2023-03-05T09:55:34.625Z,65.06
2023-03-05T09:56:37.943Z,64.93
2023-03-05T09:57:42.978Z,64.82
2023-03-05T09:58:56.217Z,64.72
2023-03-05T09:59:59.679Z,64.90
2023-03-05T10:01:16.022Z,64.95
2023-03-05T10:02:26.746Z,65.02
2023-03-05T10:03:30.217Z,64.77
2023-03-05T10:04:38.867Z,64.50
2023-03-05T10:05:52.190Z,64.63
2023-03-05T10:06:53.810Z,64.02
2023-03-05T10:08:01.418Z,64.39
2023-03-05T10:09:23.706Z,64.54
2023-03-05T10:10:42.386Z,64.83
2023-03-05T10:11:49.822Z,63.31
2023-03-05T10:12:52.789Z,63.17
2023-03-05T10:13:54.597Z,63.09
2023-03-05T10:14:57.214Z,63.53
2023-03-05T10:16:01.617Z,62.71
2023-03-05T10:17:23.360Z,62.59
2023-03-05T10:18:51.306Z,62.31
2023-03-05T10:19:58.890Z,60.88
2023-03-05T10:21:09.586Z,61.19
2023-03-05T10:22:39.551Z,60.84
2023-03-05T10:23:48.545Z,60.37
2023-03-05T10:25:18.693Z,60.24
2023-03-05T10:26:47.035Z,60.57
2023-03-05T10:27:57.106Z,60.75
2023-03-05T10:29:27.905Z,61.33
2023-03-05T10:30:41.585Z,61.32
2023-03-05T10:31:43.437Z,60.67
2023-03-05T10:33:27.033Z,59.89
2023-03-05T10:34:56.860Z,59.60
2023-03-05T10:36:17.077Z,59.57
2023-03-05T10:37:52.882Z,58.81
2023-03-05T10:39:16.264Z,58.76
2023-03-05T10:40:38.363Z,58.78
2023-03-05T10:42:02.800Z,58.52
2023-03-05T10:43:30.318Z,58.64
2023-03-05T10:44:58.992Z,56.85
2023-03-05T10:46:00.639Z,56.67
2023-03-05T10:47:02.462Z,56.27
2023-03-05T10:48:41.150Z,56.43
2023-03-05T10:49:51.479Z,56.62
2023-03-05T10:51:00.827Z,55.95
2023-03-05T10:52:18.172Z,56.01
2023-03-05T10:53:35.098Z,55.90
2023-03-05T10:54:39.930Z,56.19
2023-03-05T10:55:42.152Z,55.87
2023-03-05T10:56:43.899Z,55.63
2023-03-05T10:57:45.766Z,55.92
2023-03-05T10:58:47.765Z,56.26
2023-03-05T10:59:54.911Z,56.60
2023-03-05T11:01:12.537Z,56.39
2023-03-05T11:02:14.359Z,56.67
2023-03-05T11:03:16.128Z,55.83
2023-03-05T11:04:28.661Z,56.43
2023-03-05T11:05:40.631Z,55.69
2023-03-05T11:06:45.775Z,54.43
2023-03-05T11:07:48.823Z,54.37
2023-03-05T11:08:50.838Z,55.29
2023-03-05T11:10:04.568Z,55.47
2023-03-05T11:11:17.799Z,55.94
2023-03-05T11:12:20.517Z,55.45
2023-03-05T11:13:26.677Z,56.29
2023-03-05T11:14:33.887Z,56.53
2023-03-05T11:15:35.680Z,56.19
2023-03-05T11:16:47.662Z,55.61
2023-03-05T11:18:08.507Z,55.67
2023-03-05T11:19:19.215Z,56.17
2023-03-05T11:20:27.179Z,56.67
2023-03-05T11:21:29.863Z,56.24
2023-03-05T11:22:36.259Z,56.36
2023-03-05T11:23:38.133Z,56.53
2023-03-05T11:24:41.468Z,56.53
2023-03-05T11:26:01.319Z,56.25
2023-03-05T11:27:03.967Z,55.75
2023-03-05T11:28:06.180Z,55.56
2023-03-05T11:29:23.874Z,55.92
2023-03-05T11:30:25.738Z,55.34
2023-03-05T11:31:32.654Z,55.34
2023-03-05T11:32:34.451Z,55.31
2023-03-05T11:33:36.777Z,55.41
2023-03-05T11:34:39.220Z,55.58
2023-03-05T11:35:43.117Z,55.56
2023-03-05T11:37:06.412Z,54.66
2023-03-05T11:38:17.458Z,53.69
2023-03-05T11:39:21.044Z,54.70
2023-03-05T11:40:23.122Z,54.28
2023-03-05T11:41:52.255Z,54.37
2023-03-05T11:42:59.234Z,54.84
2023-03-05T11:44:03.893Z,54.89
2023-03-05T11:45:06.781Z,55.26
2023-03-05T11:46:09.593Z,55.71
2023-03-05T11:47:25.397Z,55.50
2023-03-05T11:48:38.577Z,55.66
2023-03-05T11:49:44.077Z,55.88
2023-03-05T11:50:47.332Z,56.30
2023-03-05T11:52:11.108Z,56.77
2023-03-05T11:53:24.522Z,55.54
2023-03-05T11:54:33.945Z,55.35
2023-03-05T11:55:51.212Z,56.23
2023-03-05T11:56:53.357Z,56.42
2023-03-05T11:58:01.712Z,55.82
2023-03-05T11:59:07.285Z,55.51
2023-03-05T12:00:13.175Z,56.10
2023-03-05T12:01:25.810Z,55.03
2023-03-05T12:02:27.925Z,55.18
2023-03-05T12:03:32.598Z,55.25
2023-03-05T12:04:34.371Z,55.49
2023-03-05T12:05:37.380Z,55.58
2023-03-05T12:06:49.803Z,54.94
2023-03-05T12:07:53.619Z,55.03
2023-03-05T12:08:57.673Z,54.89
2023-03-05T12:10:01.195Z,55.13
2023-03-05T12:11:07.472Z,55.79
2023-03-05T12:12:20.837Z,55.79
2023-03-05T12:13:24.587Z,56.04
2023-03-05T12:14:31.774Z,55.06
2023-03-05T12:15:47.788Z,54.62
2023-03-05T12:16:56.135Z,54.32
2023-03-05T12:18:12.778Z,54.31
2023-03-05T12:19:28.958Z,54.86
2023-03-05T12:20:43.409Z,53.93
2023-03-05T12:21:45.711Z,53.30
2023-03-05T12:22:49.247Z,53.68
2023-03-05T12:23:53.441Z,53.43
2023-03-05T12:24:55.320Z,53.30
2023-03-05T12:25:59.423Z,53.32
2023-03-05T12:27:04.546Z,53.57
2023-03-05T12:28:06.405Z,54.50
2023-03-05T12:29:31.185Z,54.97
2023-03-05T12:30:35.742Z,55.37
2023-03-05T12:31:39.362Z,55.74
2023-03-05T12:32:45.162Z,56.67
2023-03-05T12:33:46.925Z,56.14
2023-03-05T12:34:58.826Z,56.03
2023-03-05T12:36:19.402Z,56.51
2023-03-05T12:37:21.091Z,56.48
2023-03-05T12:38:32.494Z,55.97
2023-03-05T12:39:40.517Z,56.45
2023-03-05T12:40:42.997Z,56.52
2023-03-05T12:41:44.909Z,55.77
2023-03-05T12:43:00.216Z,55.41
2023-03-05T12:44:09.139Z,54.58
2023-03-05T12:45:16.369Z,54.18
2023-03-05T12:46:26.373Z,54.37
2023-03-05T12:47:28.334Z,55.00
2023-03-05T12:48:30.471Z,55.98
2023-03-05T12:49:39.826Z,56.01
2023-03-05T12:50:43.725Z,55.47
2023-03-05T12:51:47.411Z,55.65
2023-03-05T12:52:50.748Z,55.76
2023-03-05T12:53:52.800Z,55.82
2023-03-05T12:55:15.434Z,54.72
2023-03-05T12:56:20.283Z,53.39
2023-03-05T12:57:23.972Z,53.30
2023-03-05T12:58:39.942Z,53.27
2023-03-05T12:59:45.074Z,53.98
2023-03-05T13:00:51.006Z,53.87
2023-03-05T13:01:56.721Z,54.82
2023-03-05T13:02:59.651Z,54.69
2023-03-05T13:04:11.253Z,54.23
2023-03-05T13:05:33.741Z,53.81
2023-03-05T13:06:35.940Z,53.61
2023-03-05T13:07:38.074Z,53.97
2023-03-05T13:08:40.435Z,53.61
2023-03-05T13:09:42.993Z,54.37
2023-03-05T13:10:57.320Z,55.24
2023-03-05T13:12:00.945Z,55.31
2023-03-05T13:13:05.512Z,55.68
2023-03-05T13:14:30.928Z,55.97
2023-03-05T13:15:33.283Z,55.09
2023-03-05T13:16:39.516Z,54.46
2023-03-05T13:17:44.945Z,54.27
2023-03-05T13:18:50.500Z,55.26
2023-03-05T13:19:53.162Z,55.00
2023-03-05T13:21:18.845Z,55.02
2023-03-05T13:22:21.889Z,55.30
2023-03-05T13:23:27.846Z,55.22
2023-03-05T13:24:30.329Z,55.72
2023-03-05T13:25:32.153Z,55.48
2023-03-05T13:26:39.073Z,55.19
2023-03-05T13:27:41.803Z,54.66
2023-03-05T13:28:45.654Z,55.03
2023-03-05T13:29:53.043Z,54.58
2023-03-05T13:31:03.052Z,54.75
2023-03-05T13:32:23.285Z,53.68
2023-03-05T13:33:36.944Z,54.09
2023-03-05T13:34:47.081Z,54.09
2023-03-05T13:35:51.899Z,53.74
2023-03-05T13:37:15.115Z,53.41
2023-03-05T13:38:37.710Z,53.66
2023-03-05T13:39:51.341Z,53.49
2023-03-05T13:41:26.513Z,53.15
2023-03-05T13:42:34.945Z,52.41
2023-03-05T13:43:51.900Z,52.59
2023-03-05T13:44:55.523Z,52.78
2023-03-05T13:45:59.115Z,52.90
2023-03-05T13:47:20.005Z,52.74
2023-03-05T13:48:22.179Z,53.30
2023-03-05T13:49:29.901Z,52.69
2023-03-05T13:50:34.477Z,52.65